Home > Products > Valid Products > TAF

000
FTUS43 KABR 312103 AAA
TAFPIR
TAF AMD
KPIR 312103Z 3121/0118 02008KT P6SM VCSH SCT080 BKN120
     FM010100 VRB05KT P6SM SCT150
     FM011600 14007KT P6SM SKC=



000
FTUS43 KABR 312103 AAA
TAFPIR
TAF AMD
KPIR 312103Z 3121/0118 02008KT P6SM VCSH SCT080 BKN120
     FM010100 VRB05KT P6SM SCT150
     FM011600 14007KT P6SM SKC=



000
FTUS43 KABR 312045 AAA
TAFABR
TAF AMD
KABR 312045Z 3121/0118 33009KT P6SM VCSH OVC150
     FM312300 33009KT P6SM BKN150
     FM010100 VRB05KT P6SM FEW150
     FM011600 12007KT P6SM SKC=



000
FTUS43 KABR 311727
TAFPIR
TAF
KPIR 311727Z 3118/0118 34014G20KT P6SM VCSH SCT080 BKN120
     FM312100 34012KT P6SM SCT080 BKN120
     FM010100 VRB05KT P6SM SCT150
     FM011600 14007KT P6SM SKC=



000
FTUS43 KABR 311727
TAFATY
TAF
KATY 311727Z 3118/0118 22016G24KT P6SM FEW150
     FM312000 27010KT P6SM SCT150
     FM312200 34012KT P6SM BKN150
     FM010200 VRB05KT P6SM BKN150=



000
FTUS43 KABR 311727
TAFABR
TAF
KABR 311727Z 3118/0118 34014G21KT P6SM BKN150
     FM312100 33011KT P6SM BKN150
     FM010100 VRB05KT P6SM FEW150
     FM011600 12007KT P6SM SKC=



000
FTUS43 KABR 311727
TAFMBG
TAF
KMBG 311727Z 3118/0118 35012G18KT P6SM BKN150
     FM312100 33010KT P6SM SCT150
     FM010100 VRB05KT P6SM FEW200
     FM011600 15009KT P6SM SKC=



000
FTUS43 KABR 311528 AAC
TAFABR
TAF AMD
KABR 311528Z 3115/0112 20012G18KT P6SM BKN200
     FM311800 33014G23KT P6SM BKN150
     FM010000 VRB05KT P6SM SKC=



000
FTUS43 KABR 311525 AAB
TAFMBG
TAF AMD
KMBG 311525Z 3115/0112 34016G25KT P6SM BKN150
     FM312100 33012KT P6SM SCT150
     FM010000 VRB05KT P6SM SKC=



000
FTUS43 KABR 311525 AAB
TAFMBG
TAF AMD
KMBG 311525Z 3115/0112 34016G25KT P6SM BKN150
     FM312100 33012KT P6SM SCT150
     FM010000 VRB05KT P6SM SKC=



000
FTUS43 KABR 311523 AAA
TAFPIR
TAF AMD
KPIR 311523Z 3115/0112 33018G25KT P6SM BKN150
     FM312100 34013KT P6SM SCT150
     FM010000 VRB05KT P6SM SKC=



000
FTUS43 KABR 311521 AAB
TAFABR
TAF AMD
KABR 311521Z 3115/0112 20012G18KT P6SM BKN200
     FM311900 33014G23KT P6SM BKN150
     FM010000 VRB05KT P6SM SKC=



000
FTUS43 KABR 311409 AAA
TAFMBG
TAF AMD
KMBG 311409Z 3114/0112 33013G19KT P6SM BKN150
     FM010000 VRB05KT P6SM SKC=



000
FTUS43 KABR 311409 AAA
TAFMBG
TAF AMD
KMBG 311409Z 3114/0112 33013G19KT P6SM BKN150
     FM010000 VRB05KT P6SM SKC=



000
FTUS43 KABR 311122
TAFABR
TAF
KABR 311122Z 3112/0112 17014G19KT P6SM BKN250
     FM312000 32010KT P6SM SCT250
     FM010000 VRB05KT P6SM SKC=



000
FTUS43 KABR 311122
TAFATY
TAF
KATY 311122Z 3112/0112 17013KT P6SM SCT250
     FM311500 21014G22KT P6SM BKN250
     FM010100 VRB05KT P6SM SKC=



000
FTUS43 KABR 311122
TAFMBG
TAF
KMBG 311122Z 3112/0112 18007KT P6SM OVC250
     FM311600 32015KT P6SM SCT250
     FM010000 VRB05KT P6SM SKC=



000
FTUS43 KABR 311122
TAFPIR
TAF
KPIR 311122Z 3112/0112 18010KT P6SM OVC250
     FM311700 34013KT P6SM SCT250
     FM010000 VRB05KT P6SM SKC=



000
FTUS43 KABR 311122
TAFMBG
TAF
KMBG 311122Z 3112/0112 18007KT P6SM OVC250
     FM311600 32015KT P6SM SCT250
     FM010000 VRB05KT P6SM SKC=



000
FTUS43 KABR 311122
TAFABR
TAF
KABR 311122Z 3112/0112 17014G19KT P6SM BKN250
     FM312000 32010KT P6SM SCT250
     FM010000 VRB05KT P6SM SKC=



000
FTUS43 KABR 311122
TAFATY
TAF
KATY 311122Z 3112/0112 17013KT P6SM SCT250
     FM311500 21014G22KT P6SM BKN250
     FM010100 VRB05KT P6SM SKC=



000
FTUS43 KABR 311122
TAFPIR
TAF
KPIR 311122Z 3112/0112 18010KT P6SM OVC250
     FM311700 34013KT P6SM SCT250
     FM010000 VRB05KT P6SM SKC=



000
FTUS43 KABR 311003 AAA
TAFPIR
TAF AMD
KPIR 311003Z 3110/0106 15009KT P6SM BKN250
     FM311400 30014G22KT P6SM SCT250
     FM312000 34008KT P6SM SKC=



000
FTUS43 KABR 310527
TAFMBG
TAF
KMBG 310527Z 3106/0106 16014KT P6SM BKN250
     FM311400 30015G23KT P6SM BKN250
     FM312200 33008KT P6SM SKC=



000
FTUS43 KABR 310527
TAFABR
TAF
KABR 310527Z 3106/0106 17016G24KT P6SM SKC
     FM311400 22015G22KT P6SM SKC
     FM312000 31009KT P6SM BKN150=



000
FTUS43 KABR 310527
TAFATY
TAF
KATY 310527Z 3106/0106 16012KT P6SM SKC
     FM311400 21014G22KT P6SM SKC
     FM312000 26008KT P6SM SKC=



000
FTUS43 KABR 310527
TAFPIR
TAF
KPIR 310527Z 3106/0106 15012KT P6SM SCT250
     FM310800 22015G22KT P6SM SKC
     FM311400 30014G22KT P6SM SCT250
     FM312000 34008KT P6SM SKC=



000
FTUS43 KABR 310156 AAB
TAFPIR
TAF AMD
KPIR 310156Z 3102/3124 12012KT P6SM SKC
     FM310800 22015G22KT P6SM SKC
     FM311400 30014G22KT P6SM SCT250
     FM312000 34008KT P6SM SKC=



000
FTUS43 KABR 310156 AAA
TAFATY
TAF AMD
KATY 310156Z 3102/3124 16010KT P6SM SKC
     FM311400 21014G22KT P6SM SKC
     FM312000 26008KT P6SM SKC=



000
FTUS43 KABR 310007 AAA
TAFMBG
TAF AMD
KMBG 310007Z 3100/3124 16011KT P6SM SKC
      TEMPO 3100/3102 5SM HZ
     FM311400 30015G23KT P6SM BKN250
     FM312200 33008KT P6SM SKC=



000
FTUS43 KABR 310007 AAA
TAFMBG
TAF AMD
KMBG 310007Z 3100/3124 16011KT P6SM SKC
      TEMPO 3100/3102 5SM HZ
     FM311400 30015G23KT P6SM BKN250
     FM312200 33008KT P6SM SKC=



000
FTUS43 KABR 310006 AAA
TAFPIR
TAF AMD
KPIR 310006Z 3100/3124 13015KT 5SM HZ SKC
     FM310800 22015G22KT P6SM SKC
     FM311400 30014G22KT P6SM SCT250
     FM312000 34008KT P6SM SKC=



000
FTUS43 KABR 310006 AAA
TAFPIR
TAF AMD
KPIR 310006Z 3100/3124 13015KT 5SM HZ SKC
     FM310800 22015G22KT P6SM SKC
     FM311400 30014G22KT P6SM SCT250
     FM312000 34008KT P6SM SKC=



000
FTUS43 KABR 302330
TAFATY
TAF
KATY 302330Z 3100/3124 17012G21KT P6SM SKC
     FM311400 21014G22KT P6SM SKC
     FM312000 26008KT P6SM SKC=



000
FTUS43 KABR 302330
TAFABR
TAF
KABR 302330Z 3100/3124 16016G24KT P6SM SKC
     FM311400 22015G22KT P6SM SKC
     FM312000 31009KT P6SM BKN150=



000
FTUS43 KABR 302330
TAFMBG
TAF
KMBG 302330Z 3100/3124 16011KT P6SM SKC
     FM311400 30015G23KT P6SM BKN250
     FM312200 33008KT P6SM SKC=



000
FTUS43 KABR 302330
TAFPIR
TAF
KPIR 302330Z 3100/3124 17017G25KT 5SM HZ SKC
     FM310800 22015G22KT P6SM SKC
     FM311400 30014G22KT P6SM SCT250
     FM312000 34008KT P6SM SKC=



000
FTUS43 KABR 302330
TAFATY
TAF
KATY 302330Z 3100/3124 17012G21KT P6SM SKC
     FM311400 21014G22KT P6SM SKC
     FM312000 26008KT P6SM SKC=



000
FTUS43 KABR 302330
TAFABR
TAF
KABR 302330Z 3100/3124 16016G24KT P6SM SKC
     FM311400 22015G22KT P6SM SKC
     FM312000 31009KT P6SM BKN150=



000
FTUS43 KABR 302330
TAFPIR
TAF
KPIR 302330Z 3100/3124 17017G25KT 5SM HZ SKC
     FM310800 22015G22KT P6SM SKC
     FM311400 30014G22KT P6SM SCT250
     FM312000 34008KT P6SM SKC=



000
FTUS43 KABR 302330
TAFMBG
TAF
KMBG 302330Z 3100/3124 16011KT P6SM SKC
     FM311400 30015G23KT P6SM BKN250
     FM312200 33008KT P6SM SKC=



000
FTUS43 KABR 302054 AAA
TAFPIR
TAF AMD
KPIR 302054Z 3021/3118 20017G25KT 6SM HZ SKC
     FM311300 30014G22KT P6SM SCT250=



000
FTUS43 KABR 302054 AAA
TAFMBG
TAF AMD
KMBG 302054Z 3021/3118 19016G26KT P6SM SKC
     FM311200 30015G23KT P6SM BKN250=



000
FTUS43 KABR 302054 AAA
TAFATY
TAF AMD
KATY 302054Z 3021/3118 17012G21KT P6SM SKC=



000
FTUS43 KABR 302054 AAA
TAFABR
TAF AMD
KABR 302054Z 3021/3118 16016G24KT P6SM SKC=



000
FTUS43 KABR 301723
TAFMBG
TAF
KMBG 301723Z 3018/3118 16013G21KT P6SM SCT250
     FM311200 30015G23KT P6SM BKN250=



000
FTUS43 KABR 301723
TAFPIR
TAF
KPIR 301723Z 3018/3118 19018G27KT P6SM FEW250
     FM311300 30014G22KT P6SM SCT250=



000
FTUS43 KABR 301723
TAFATY
TAF
KATY 301723Z 3018/3118 17015G24KT P6SM FEW250=



000
FTUS43 KABR 301723
TAFABR
TAF
KABR 301723Z 3018/3118 17015G24KT P6SM FEW250=



000
FTUS43 KABR 301606 AAB
TAFABR
TAF AMD
KABR 301606Z 3016/3112 17014KT P6SM FEW250
     FM301800 17015G24KT P6SM FEW250=



000
FTUS43 KABR 301606 AAA
TAFMBG
TAF AMD
KMBG 301606Z 3016/3112 15013KT P6SM FEW250
     FM301800 16015G24KT P6SM FEW250=



000
FTUS43 KABR 301606 AAB
TAFATY
TAF AMD
KATY 301606Z 3016/3112 18010KT P6SM FEW250
     FM301800 17015G24KT P6SM FEW250=



000
FTUS43 KABR 301606 AAA
TAFPIR
TAF AMD
KPIR 301606Z 3016/3112 15007KT P6SM FEW250
     FM301800 18018G27KT P6SM FEW250=



000
FTUS43 KABR 301606 AAA
TAFPIR
TAF AMD
KPIR 301606Z 3016/3112 15007KT P6SM FEW250
     FM301800 18018G27KT P6SM FEW250=



000
FTUS43 KABR 301606 AAB
TAFATY
TAF AMD
KATY 301606Z 3016/3112 18010KT P6SM FEW250
     FM301800 17015G24KT P6SM FEW250=



000
FTUS43 KABR 301606 AAA
TAFMBG
TAF AMD
KMBG 301606Z 3016/3112 15013KT P6SM FEW250
     FM301800 16015G24KT P6SM FEW250=



000
FTUS43 KABR 301606 AAB
TAFABR
TAF AMD
KABR 301606Z 3016/3112 17014KT P6SM FEW250
     FM301800 17015G24KT P6SM FEW250=



000
FTUS43 KABR 301248 AAA
TAFATY
TAF AMD
KATY 301248Z 3013/3112 17011KT P6SM SKC
     FM301700 18014G23KT P6SM SCT250=



000
FTUS43 KABR 301248 AAA
TAFATY
TAF AMD
KATY 301248Z 3013/3112 17011KT P6SM SKC
     FM301700 18014G23KT P6SM SCT250=



000
FTUS43 KABR 301124
TAFATY
TAF
KATY 301124Z 3012/3112 17010KT P6SM SCT250
      TEMPO 3012/3014 5SM BR
     FM301700 18014G23KT P6SM SCT250=



000
FTUS43 KABR 301124
TAFMBG
TAF
KMBG 301124Z 3012/3112 15009KT P6SM SCT250
     FM301500 17018G28KT P6SM SCT250
     FM310900 28010KT P6SM BKN250=



000
FTUS43 KABR 301124
TAFABR
TAF
KABR 301124Z 3012/3112 17009KT P6SM SCT250
     FM301600 18015G25KT P6SM SCT250=



000
FTUS43 KABR 301124
TAFPIR
TAF
KPIR 301124Z 3012/3112 16008KT P6SM SCT250
     FM301500 18018G27KT P6SM SCT250
     FM310900 25013KT P6SM BKN250=



000
FTUS43 KABR 301031 AAA
TAFATY
TAF AMD
KATY 301031Z 3011/3106 17010KT P6SM SCT250
      TEMPO 3011/3014 4SM BR
     FM301700 19015G22KT P6SM SKC=



000
FTUS43 KABR 301031 AAA
TAFATY
TAF AMD
KATY 301031Z 3011/3106 17010KT P6SM SCT250
      TEMPO 3011/3014 4SM BR
     FM301700 19015G22KT P6SM SKC=



000
FTUS43 KABR 300525
TAFPIR
TAF
KPIR 300525Z 3006/3106 15011KT P6SM SCT250
     FM301400 18015G22KT P6SM SKC
     FM301700 17020G28KT P6SM SKC=



000
FTUS43 KABR 300525
TAFMBG
TAF
KMBG 300525Z 3006/3106 14009KT P6SM SCT250
     FM301700 16018G28KT P6SM SKC=



000
FTUS43 KABR 300525
TAFABR
TAF
KABR 300525Z 3006/3106 17010KT P6SM SCT250
     FM301600 19015G25KT P6SM SKC=



000
FTUS43 KABR 300525
TAFATY
TAF
KATY 300525Z 3006/3106 17009KT P6SM SCT250
     FM301700 19015G22KT P6SM SKC=



000
FTUS43 KABR 292327
TAFPIR
TAF
KPIR 292327Z 3000/3024 16008KT P6SM SKC
     FM301400 18015G22KT P6SM SKC
     FM301700 17020G28KT P6SM SKC=



000
FTUS43 KABR 292327
TAFMBG
TAF
KMBG 292327Z 3000/3024 16010KT P6SM SKC
     FM301700 16018G28KT P6SM SKC=



000
FTUS43 KABR 292327
TAFATY
TAF
KATY 292327Z 3000/3024 18009KT P6SM FEW250
     FM301700 19015G22KT P6SM SKC=



000
FTUS43 KABR 292327
TAFABR
TAF
KABR 292327Z 3000/3024 16009KT P6SM FEW250
     FM301600 19015G25KT P6SM SKC=



000
FTUS43 KABR 292327
TAFATY
TAF
KATY 292327Z 3000/3024 18009KT P6SM FEW250
     FM301700 19015G22KT P6SM SKC=



000
FTUS43 KABR 292327
TAFPIR
TAF
KPIR 292327Z 3000/3024 16008KT P6SM SKC
     FM301400 18015G22KT P6SM SKC
     FM301700 17020G28KT P6SM SKC=



000
FTUS43 KABR 292327
TAFABR
TAF
KABR 292327Z 3000/3024 16009KT P6SM FEW250
     FM301600 19015G25KT P6SM SKC=



000
FTUS43 KABR 292327
TAFMBG
TAF
KMBG 292327Z 3000/3024 16010KT P6SM SKC
     FM301700 16018G28KT P6SM SKC=



000
FTUS43 KABR 292043 AAA
TAFPIR
TAF AMD
KPIR 292043Z 2921/3018 18009KT P6SM SKC
     FM300000 15008KT P6SM SKC
      TEMPO 3010/3014 2SM BR
     FM301400 18015KT P6SM SKC=



000
FTUS43 KABR 292043 AAA
TAFPIR
TAF AMD
KPIR 292043Z 2921/3018 18009KT P6SM SKC
     FM300000 15008KT P6SM SKC
      TEMPO 3010/3014 2SM BR
     FM301400 18015KT P6SM SKC=



000
FTUS43 KABR 292040 AAB
TAFABR
TAF AMD
KABR 292040Z 2921/3018 18009KT P6SM FEW250
      TEMPO 3010/3014 3SM BR BKN004=



000
FTUS43 KABR 292040 AAA
TAFATY
TAF AMD
KATY 292040Z 2921/3018 19009KT P6SM FEW250
      TEMPO 3010/3014 3SM BR BKN004=



000
FTUS43 KABR 292012 AAA
TAFMBG
TAF AMD
KMBG 292012Z 2920/3018 16006KT 6SM FU SKC
      TEMPO 2920/2924 5SM FU
     FM300200 14009KT P6SM SKC=



000
FTUS43 KABR 292012 AAA
TAFMBG
TAF AMD
KMBG 292012Z 2920/3018 16006KT 6SM FU SKC
      TEMPO 2920/2924 5SM FU
     FM300200 14009KT P6SM SKC=



000
FTUS43 KABR 291729
TAFATY
TAF
KATY 291729Z 2918/3018 19009KT P6SM FEW250=



000
FTUS43 KABR 291729
TAFMBG
TAF
KMBG 291729Z 2918/3018 16006KT 6SM FU SKC
     FM300200 14009KT P6SM SKC=



000
FTUS43 KABR 291729
TAFPIR
TAF
KPIR 291729Z 2918/3018 20006KT P6SM SKC
     FM300000 14008KT P6SM SKC
     FM300800 17012KT P6SM SKC=



000
FTUS43 KABR 291729
TAFABR
TAF
KABR 291729Z 2918/3018 18009KT P6SM FEW250=



000
FTUS43 KABR 291729
TAFMBG
TAF
KMBG 291729Z 2918/3018 16006KT 6SM FU SKC
     FM300200 14009KT P6SM SKC=



000
FTUS43 KABR 291729
TAFPIR
TAF
KPIR 291729Z 2918/3018 20006KT P6SM SKC
     FM300000 14008KT P6SM SKC
     FM300800 17012KT P6SM SKC=



000
FTUS43 KABR 291729
TAFATY
TAF
KATY 291729Z 2918/3018 19009KT P6SM FEW250=



000
FTUS43 KABR 291729
TAFABR
TAF
KABR 291729Z 2918/3018 18009KT P6SM FEW250=



000
FTUS43 KABR 291343 AAA
TAFMBG
TAF AMD
KMBG 291343Z 2914/3012 VRB06KT 5SM BR SKC
      TEMPO 2914/2915 P6SM NSW
     FM291500 19009KT P6SM SCT250
     FM300200 14009KT P6SM SKC=



000
FTUS43 KABR 291122
TAFABR
TAF
KABR 291122Z 2912/3012 18009KT P6SM SCT250
     FM300200 17008KT P6SM SKC=



000
FTUS43 KABR 291122
TAFATY
TAF
KATY 291122Z 2912/3012 VRB04KT P6SM SKC
     FM291600 20010KT P6SM SCT250
     FM300200 17008KT P6SM SKC=



000
FTUS43 KABR 291122
TAFPIR
TAF
KPIR 291122Z 2912/3012 VRB04KT P6SM BKN250
     FM291600 18009KT P6SM SCT250
     FM300200 15008KT P6SM SKC=



000
FTUS43 KABR 291122
TAFMBG
TAF
KMBG 291122Z 2912/3012 VRB04KT P6SM BKN250
     FM291600 17010KT P6SM SCT250
     FM300200 14009KT P6SM SKC=



000
FTUS43 KABR 291122
TAFMBG
TAF
KMBG 291122Z 2912/3012 VRB04KT P6SM BKN250
     FM291600 17010KT P6SM SCT250
     FM300200 14009KT P6SM SKC=



000
FTUS43 KABR 291122
TAFABR
TAF
KABR 291122Z 2912/3012 18009KT P6SM SCT250
     FM300200 17008KT P6SM SKC=



000
FTUS43 KABR 291122
TAFPIR
TAF
KPIR 291122Z 2912/3012 VRB04KT P6SM BKN250
     FM291600 18009KT P6SM SCT250
     FM300200 15008KT P6SM SKC=



000
FTUS43 KABR 291122
TAFATY
TAF
KATY 291122Z 2912/3012 VRB04KT P6SM SKC
     FM291600 20010KT P6SM SCT250
     FM300200 17008KT P6SM SKC=



000
FTUS43 KABR 291045 AAB
TAFABR
TAF AMD
KABR 291045Z 2911/3006 18008KT P6SM SKC
     FM291600 19012KT P6SM SCT200=



000
FTUS43 KABR 291045 AAA
TAFATY
TAF AMD
KATY 291045Z 2911/3006 18008KT P6SM SKC
     FM291600 19011KT P6SM SCT250=



000
FTUS43 KABR 290523
TAFPIR
TAF
KPIR 290523Z 2906/3006 15008KT P6SM SCT250
     FM291600 20014KT P6SM SCT250=



000
FTUS43 KABR 290523
TAFABR
TAF
KABR 290523Z 2906/3006 18010KT P6SM SKC
      TEMPO 2910/2912 5SM BR
     FM291600 19012KT P6SM SCT200=



000
FTUS43 KABR 290523
TAFMBG
TAF
KMBG 290523Z 2906/3006 16008KT P6SM SCT250
     FM291600 19014KT P6SM SCT250=



000
FTUS43 KABR 290523
TAFATY
TAF
KATY 290523Z 2906/3006 18008KT P6SM SKC
      TEMPO 2908/2912 3SM BR
     FM291600 19011KT P6SM SCT250=



000
FTUS43 KABR 290523
TAFPIR
TAF
KPIR 290523Z 2906/3006 15008KT P6SM SCT250
     FM291600 20014KT P6SM SCT250=



000
FTUS43 KABR 290523
TAFATY
TAF
KATY 290523Z 2906/3006 18008KT P6SM SKC
      TEMPO 2908/2912 3SM BR
     FM291600 19011KT P6SM SCT250=



000
FTUS43 KABR 290523
TAFMBG
TAF
KMBG 290523Z 2906/3006 16008KT P6SM SCT250
     FM291600 19014KT P6SM SCT250=



000
FTUS43 KABR 290523
TAFABR
TAF
KABR 290523Z 2906/3006 18010KT P6SM SKC
      TEMPO 2910/2912 5SM BR
     FM291600 19012KT P6SM SCT200=



000
FTUS43 KABR 282340
TAFABR
TAF
KABR 282340Z 2900/2924 18006KT P6SM SCT200
      TEMPO 2908/2912 3SM BR
     FM291600 20014KT P6SM SCT250=



000
FTUS43 KABR 282340
TAFPIR
TAF
KPIR 282340Z 2900/2924 15006KT P6SM SCT250
     FM291600 22014KT P6SM SCT250=



000
FTUS43 KABR 282340
TAFMBG
TAF
KMBG 282340Z 2900/2924 15006KT P6SM SCT250
     FM291600 23014KT P6SM SCT250=



000
FTUS43 KABR 282340
TAFATY
TAF
KATY 282340Z 2900/2924 18006KT P6SM SCT200
      TEMPO 2908/2912 3SM BR
     FM291600 19014KT P6SM SCT250=



    US Dept of Commerce
    National Oceanic and Atmospheric Administration
    National Weather Service
    1325 East West Highway
    Silver Spring, MD 20910
    Page Author: NWS Internet Services Team
Disclaimer
Information Quality
Credits
Glossary
Privacy Policy
Freedom of Information Act (FOIA)
About Us
Career Opportunities